Daffan, Texas
Current Conditions -  °F | °C
As of 8:55 PM on Wednesday 22 Oct 2014 (Local Time) from KEDC Reporting Station
Broken Clouds Broken Clouds  
Wind Chill: 22°   Ceiling: 4700
Heat Index: 22°   Visibility: 10mi
Dew Point: 15°   Wind: 0mph
Humidity: 64%   Direction: NA
Pressure: 30.1"   Gusts: NA
Location:  30.352°N, 97.5205°W
Report Text: KEDC 230155Z AUTO 00000KT 10SM FEW036 BKN047 22/15 A3010 RMK AO2
Loading
Personal Weather Stations






























Interactive Weather Map
Tropical Storm Tracking
New forecast layout! Learn more

10-Day Weather Forecast

Advertisements
Track Severe Weather on mobile